Hovedside
METAR-TAF:

METAR-TAF

Lufthavner :

Wake Island, USA

breddegrad: 19-17N, lengdegrad: 166-39E, høyde over havet: 4 m

Gjeldene værobservasjon

Denne rapporten ble laget for 46 minutter siden, klokken 00:55 UTC
Vind 13 kt fra Øst-nordøst
Temperatur 31°C
Luftfuktighet 63%
Trykk 1013 hPa
Sikt: 16.1 km
Få skyer i en høyde av 28000 ft
Få skyer i en høyde av 35000 ft

METAR: PWAK 200055Z AUTO 06013KT 10SM FEW280 FEW350 31/23 A2991 RMK AO2 SLP135 T03070231

Tid: 13:41 (01:41 UTC)

Varsel

Denne rapporten ble laget for 3 timer og 21 minutter siden, klokken 22:20 UTC
Varsel gyldig fra 19. klokken 22 UTC til 21. klokken 04 UTC
Vind 10 kt fra Nordøst
Sikt 10 km eller mer
Spredte skyer i en høyde av 1900 ft
Midlertidig
fra 19. klokken 23 UTC til 20. klokken 01 UTC
Brutte skyer i en høyde av 1900 ft

TAF: PWAK 192220Z 1922/2104 05010KT 9999 SCT019 QNH2985INS TEMPO 1923/2001 BKN019 TX31/2007Z TN26/2015Z FOR MIL USE ONLY

Værobservasjoner og værvarsel for over 4000 flyplasser (METAR- og TAF-rapporter).

Tilgjengelige stasjoner er representert av de røde og gule prikkene på kartet.

Hold musepekeren over prikken for å se navnet på stasjonen.

Klikk så for å se værobservasjoner og -varsler.

For å forandre kartet kan du klikke på den grønne knappen med svart kryss for å zoome inn, på den grønne knappen med strek for å zoome ut, eller på de grønne pilene for å se tilstøtende kart.


METAR-TAF: